Hlavní strana
METAR-TAF:

METAR-TAF

Letiště :

Kalmar, Švédsko

zeměpisná šířka: 56-44N, zeměpisná délka: 016-18E, výška: 16 m

Aktuální stav počasí

Zpráva byla vytvořena před 39 minutami, v 20:20 UTC
Jihovýchodní vítr 3 kt
Teplota 4°C
Vlhkost vzduchu 93%
Tlak 1006 hPa
Viditelnost 10 km a více
Polojasno ve výšce 3900 ft

METAR: ESMQ 122020Z 13003KT 9999 SCT039 04/03 Q1006

Čas: 21:59 (20:59 UTC)

Předpověď počasí

Zpráva byla vytvořena před 29 minutami, v 20:30 UTC
Předpověď platná od 12 v 21 UTC do 12 v 23 UTC
Jihojihovýchodní vítr 4 kt
Viditelnost 10 km a více
Polojasno ve výšce 3000 ft

TAF: ESMQ 122030Z 1221/1223 16004KT 9999 SCT030

Stav a předpovědi počasí z více než 4 000 letišť (zprávy METAR a TAF).

Červené a žluté tečky na mapě představují dostupné meteorologické stanice.

Když kurzor umístíte na tečku, zobrazí se název stanice.

Pak kliknutím zobrazíte stav a předpověď počasí.

Chcete-li změnit mapu, kliknutím na zelené tlačítko se znaménkem +mapu přiblížíte, kliknutím na zelené tlačítko se znaménkem – mapu oddálíte a kliknutím na zelené šipky přejdete na sousední mapy.


METAR-TAF: